sensor_id;sensor_type;location;lat;lon;timestamp;pressure;altitude;pressure_sealevel;temperature;humidity
63181;BME280;49273;37.772;-122.432;2022-08-01T00:00:14;100919.38;;;22.66;59.22
63181;BME280;49273;37.772;-122.432;2022-08-01T00:02:42;100918.76;;;23.21;57.36
63181;BME280;49273;37.772;-122.432;2022-08-01T00:05:11;100913.06;;;24.17;54.81
63181;BME280;49273;37.772;-122.432;2022-08-01T00:07:39;100924.58;;;24.07;54.72
63181;BME280;49273;37.772;-122.432;2022-08-01T00:10:10;100916.00;;;24.37;54.41
63181;BME280;49273;37.772;-122.432;2022-08-01T00:12:38;100920.79;;;24.81;52.78
63181;BME280;49273;37.772;-122.432;2022-08-01T00:15:09;100921.60;;;24.91;52.11
63181;BME280;49273;37.772;-122.432;2022-08-01T00:17:37;100923.81;;;24.85;51.84
63181;BME280;49273;37.772;-122.432;2022-08-01T00:20:08;100929.75;;;25.34;50.77
63181;BME280;49273;37.772;-122.432;2022-08-01T00:22:37;100933.32;;;25.55;50.11
63181;BME280;49273;37.772;-122.432;2022-08-01T00:25:06;100929.33;;;25.78;49.71
63181;BME280;49273;37.772;-122.432;2022-08-01T00:27:34;100928.28;;;25.12;50.78
63181;BME280;49273;37.772;-122.432;2022-08-01T00:30:03;100930.45;;;26.19;48.48
63181;BME280;49273;37.772;-122.432;2022-08-01T00:32:32;100932.71;;;25.99;48.97
63181;BME280;49273;37.772;-122.432;2022-08-01T00:35:00;100926.21;;;25.41;50.05
63181;BME280;49273;37.772;-122.432;2022-08-01T00:37:28;100925.55;;;25.60;49.50
63181;BME280;49273;37.772;-122.432;2022-08-01T00:39:56;100933.44;;;24.73;51.69
63181;BME280;49273;37.772;-122.432;2022-08-01T00:42:25;100932.37;;;25.50;50.25
63181;BME280;49273;37.772;-122.432;2022-08-01T00:44:53;100922.55;;;24.41;52.64
63181;BME280;49273;37.772;-122.432;2022-08-01T00:47:21;100917.47;;;25.35;50.48
63181;BME280;49273;37.772;-122.432;2022-08-01T00:49:50;100916.64;;;25.63;49.58
63181;BME280;49273;37.772;-122.432;2022-08-01T00:52:18;100916.80;;;25.04;51.10
63181;BME280;49273;37.772;-122.432;2022-08-01T00:54:47;100913.38;;;24.91;51.38
63181;BME280;49273;37.772;-122.432;2022-08-01T00:57:16;100911.17;;;24.71;52.10
63181;BME280;49273;37.772;-122.432;2022-08-01T00:59:44;100910.88;;;24.11;53.73
63181;BME280;49273;37.772;-122.432;2022-08-01T01:02:13;100913.39;;;23.66;54.68
63181;BME280;49273;37.772;-122.432;2022-08-01T01:04:41;100918.12;;;23.16;56.46
63181;BME280;49273;37.772;-122.432;2022-08-01T01:07:17;100910.46;;;22.43;58.91
63181;BME280;49273;37.772;-122.432;2022-08-01T01:09:52;100918.27;;;22.41;59.19
63181;BME280;49273;37.772;-122.432;2022-08-01T01:12:30;100915.64;;;22.27;59.93
63181;BME280;49273;37.772;-122.432;2022-08-01T01:15:04;100913.54;;;22.13;60.13
63181;BME280;49273;37.772;-122.432;2022-08-01T01:17:37;100913.20;;;21.21;63.08
63181;BME280;49273;37.772;-122.432;2022-08-01T01:20:09;100908.69;;;21.17;63.70
63181;BME280;49273;37.772;-122.432;2022-08-01T01:22:50;100910.94;;;22.19;60.83
63181;BME280;49273;37.772;-122.432;2022-08-01T01:25:32;100906.23;;;22.08;61.03
63181;BME280;49273;37.772;-122.432;2022-08-01T01:28:14;100913.30;;;22.79;58.51
63181;BME280;49273;37.772;-122.432;2022-08-01T01:30:46;100912.30;;;23.29;57.01
63181;BME280;49273;37.772;-122.432;2022-08-01T01:33:18;100912.74;;;23.23;56.82
63181;BME280;49273;37.772;-122.432;2022-08-01T01:35:50;100906.60;;;23.62;55.64
63181;BME280;49273;37.772;-122.432;2022-08-01T01:38:22;100912.56;;;24.27;53.90
63181;BME280;49273;37.772;-122.432;2022-08-01T01:40:53;100908.42;;;23.79;54.76
63181;BME280;49273;37.772;-122.432;2022-08-01T01:43:24;100910.93;;;24.26;53.76
63181;BME280;49273;37.772;-122.432;2022-08-01T01:45:54;100907.01;;;23.90;54.51
63181;BME280;49273;37.772;-122.432;2022-08-01T01:48:23;100908.17;;;23.24;56.36
63181;BME280;49273;37.772;-122.432;2022-08-01T01:50:52;100909.58;;;22.13;59.89
63181;BME280;49273;37.772;-122.432;2022-08-01T01:53:22;100905.34;;;21.64;61.89
63181;BME280;49273;37.772;-122.432;2022-08-01T01:55:53;100902.41;;;21.22;63.47
63181;BME280;49273;37.772;-122.432;2022-08-01T01:58:23;100900.58;;;20.91;64.89
63181;BME280;49273;37.772;-122.432;2022-08-01T02:00:52;100904.80;;;20.31;67.19
63181;BME280;49273;37.772;-122.432;2022-08-01T02:03:23;100904.76;;;19.94;69.10
63181;BME280;49273;37.772;-122.432;2022-08-01T02:05:52;100902.04;;;19.90;68.98
63181;BME280;49273;37.772;-122.432;2022-08-01T02:08:22;100898.39;;;19.70;69.81
63181;BME280;49273;37.772;-122.432;2022-08-01T02:10:53;100907.11;;;19.60;70.98
63181;BME280;49273;37.772;-122.432;2022-08-01T02:13:22;100904.82;;;19.65;70.85
63181;BME280;49273;37.772;-122.432;2022-08-01T02:15:50;100910.05;;;19.45;71.65
63181;BME280;49273;37.772;-122.432;2022-08-01T02:18:19;100915.16;;;19.13;72.39
63181;BME280;49273;37.772;-122.432;2022-08-01T02:20:49;100919.09;;;19.08;73.41
63181;BME280;49273;37.772;-122.432;2022-08-01T02:23:20;100919.77;;;19.02;73.66
63181;BME280;49273;37.772;-122.432;2022-08-01T02:25:52;100921.98;;;18.86;74.19
63181;BME280;49273;37.772;-122.432;2022-08-01T02:28:27;100924.94;;;19.00;73.72
63181;BME280;49273;37.772;-122.432;2022-08-01T02:31:02;100923.12;;;18.82;74.68
63181;BME280;49273;37.772;-122.432;2022-08-01T02:33:37;100921.45;;;18.96;74.43
63181;BME280;49273;37.772;-122.432;2022-08-01T02:36:07;100922.44;;;18.86;75.07
63181;BME280;49273;37.772;-122.432;2022-08-01T02:38:39;100919.35;;;18.76;75.70
63181;BME280;49273;37.772;-122.432;2022-08-01T02:41:10;100917.35;;;18.75;76.05
63181;BME280;49273;37.772;-122.432;2022-08-01T02:43:43;100920.82;;;18.59;76.63
63181;BME280;49273;37.772;-122.432;2022-08-01T02:46:19;100929.78;;;18.31;77.78
63181;BME280;49273;37.772;-122.432;2022-08-01T02:48:50;100931.77;;;18.27;78.26
63181;BME280;49273;37.772;-122.432;2022-08-01T02:51:23;100934.63;;;18.47;77.70
63181;BME280;49273;37.772;-122.432;2022-08-01T02:53:54;100933.66;;;18.19;79.03
63181;BME280;49273;37.772;-122.432;2022-08-01T02:56:24;100936.26;;;18.29;78.40
63181;BME280;49273;37.772;-122.432;2022-08-01T02:58:54;100936.32;;;18.34;78.31
63181;BME280;49273;37.772;-122.432;2022-08-01T03:01:23;100934.60;;;18.27;78.28
63181;BME280;49273;37.772;-122.432;2022-08-01T03:03:52;100941.52;;;18.35;78.20
63181;BME280;49273;37.772;-122.432;2022-08-01T03:06:20;100941.73;;;18.11;79.25
63181;BME280;49273;37.772;-122.432;2022-08-01T03:08:49;100939.29;;;18.03;79.89
63181;BME280;49273;37.772;-122.432;2022-08-01T03:11:19;100935.75;;;18.15;79.25
63181;BME280;49273;37.772;-122.432;2022-08-01T03:13:49;100940.54;;;18.16;79.13
63181;BME280;49273;37.772;-122.432;2022-08-01T03:16:20;100946.04;;;18.22;78.58
63181;BME280;49273;37.772;-122.432;2022-08-01T03:18:49;100954.73;;;18.14;79.05
63181;BME280;49273;37.772;-122.432;2022-08-01T03:21:20;100953.80;;;18.08;79.08
63181;BME280;49273;37.772;-122.432;2022-08-01T03:23:50;100951.12;;;17.94;79.70
63181;BME280;49273;37.772;-122.432;2022-08-01T03:26:20;100953.38;;;17.97;80.21
63181;BME280;49273;37.772;-122.432;2022-08-01T03:28:49;100950.74;;;17.88;80.35
63181;BME280;49273;37.772;-122.432;2022-08-01T03:31:19;100953.62;;;17.98;80.08
63181;BME280;49273;37.772;-122.432;2022-08-01T03:33:47;100953.70;;;17.69;81.00
63181;BME280;49273;37.772;-122.432;2022-08-01T03:36:16;100953.43;;;17.73;80.99
63181;BME280;49273;37.772;-122.432;2022-08-01T03:38:48;100949.50;;;17.64;81.85
63181;BME280;49273;37.772;-122.432;2022-08-01T03:41:21;100954.31;;;17.54;81.63
63181;BME280;49273;37.772;-122.432;2022-08-01T03:43:55;100950.96;;;17.62;81.64
63181;BME280;49273;37.772;-122.432;2022-08-01T03:46:28;100954.52;;;17.52;82.65
63181;BME280;49273;37.772;-122.432;2022-08-01T03:49:03;100954.06;;;17.44;82.81
63181;BME280;49273;37.772;-122.432;2022-08-01T03:51:32;100945.90;;;17.47;82.61
63181;BME280;49273;37.772;-122.432;2022-08-01T03:54:01;100950.80;;;17.43;82.64
63181;BME280;49273;37.772;-122.432;2022-08-01T03:56:30;100943.79;;;17.57;82.54
63181;BME280;49273;37.772;-122.432;2022-08-01T03:59:00;100948.21;;;17.14;84.96
63181;BME280;49273;37.772;-122.432;2022-08-01T04:01:29;100948.92;;;17.33;84.23
63181;BME280;49273;37.772;-122.432;2022-08-01T04:03:59;100954.05;;;17.40;83.70
63181;BME280;49273;37.772;-122.432;2022-08-01T04:06:28;100948.69;;;17.18;84.93
63181;BME280;49273;37.772;-122.432;2022-08-01T04:08:57;100953.66;;;17.06;85.40
63181;BME280;49273;37.772;-122.432;2022-08-01T04:11:26;100958.84;;;17.05;85.05
63181;BME280;49273;37.772;-122.432;2022-08-01T04:13:56;100958.23;;;16.88;86.15
63181;BME280;49273;37.772;-122.432;2022-08-01T04:16:24;100959.43;;;16.84;87.10
63181;BME280;49273;37.772;-122.432;2022-08-01T04:18:52;100961.61;;;17.13;85.94
63181;BME280;49273;37.772;-122.432;2022-08-01T04:21:24;100967.13;;;17.00;86.29
63181;BME280;49273;37.772;-122.432;2022-08-01T04:23:53;100974.56;;;17.16;85.55
63181;BME280;49273;37.772;-122.432;2022-08-01T04:26:22;100978.26;;;17.15;85.79
63181;BME280;49273;37.772;-122.432;2022-08-01T04:28:52;100983.87;;;17.01;86.14
63181;BME280;49273;37.772;-122.432;2022-08-01T04:31:23;100978.28;;;16.97;86.53
63181;BME280;49273;37.772;-122.432;2022-08-01T04:33:53;100987.49;;;16.99;86.86
63181;BME280;49273;37.772;-122.432;2022-08-01T04:36:23;100984.48;;;17.31;85.23
63181;BME280;49273;37.772;-122.432;2022-08-01T04:38:57;100988.77;;;16.97;86.14
63181;BME280;49273;37.772;-122.432;2022-08-01T04:41:26;100997.28;;;17.15;85.75
63181;BME280;49273;37.772;-122.432;2022-08-01T04:43:55;100993.91;;;17.01;86.14
63181;BME280;49273;37.772;-122.432;2022-08-01T04:46:24;100995.23;;;17.11;85.87
63181;BME280;49273;37.772;-122.432;2022-08-01T04:48:54;100992.09;;;17.29;85.07
63181;BME280;49273;37.772;-122.432;2022-08-01T04:51:23;100995.42;;;17.26;84.59
63181;BME280;49273;37.772;-122.432;2022-08-01T04:53:52;101006.65;;;17.04;85.44
63181;BME280;49273;37.772;-122.432;2022-08-01T04:56:20;101016.82;;;16.90;86.16
63181;BME280;49273;37.772;-122.432;2022-08-01T04:58:48;101024.79;;;17.16;84.93
63181;BME280;49273;37.772;-122.432;2022-08-01T05:01:17;101025.94;;;17.18;85.16
63181;BME280;49273;37.772;-122.432;2022-08-01T05:03:45;101031.45;;;17.19;84.82
63181;BME280;49273;37.772;-122.432;2022-08-01T05:06:14;101035.00;;;17.27;84.65
63181;BME280;49273;37.772;-122.432;2022-08-01T05:08:42;101039.45;;;17.36;84.05
63181;BME280;49273;37.772;-122.432;2022-08-01T05:11:10;101039.65;;;17.42;83.82
63181;BME280;49273;37.772;-122.432;2022-08-01T05:13:38;101037.15;;;17.35;83.93
63181;BME280;49273;37.772;-122.432;2022-08-01T05:16:06;101034.98;;;17.36;84.01
63181;BME280;49273;37.772;-122.432;2022-08-01T05:18:34;101030.70;;;17.27;84.59
63181;BME280;49273;37.772;-122.432;2022-08-01T05:21:03;101033.58;;;17.28;84.33
63181;BME280;49273;37.772;-122.432;2022-08-01T05:23:31;101031.81;;;17.25;84.79
63181;BME280;49273;37.772;-122.432;2022-08-01T05:25:58;101027.59;;;17.53;83.20
63181;BME280;49273;37.772;-122.432;2022-08-01T05:28:26;101028.79;;;17.38;83.74
63181;BME280;49273;37.772;-122.432;2022-08-01T05:30:54;101035.04;;;17.32;83.71
63181;BME280;49273;37.772;-122.432;2022-08-01T05:33:23;101032.90;;;17.25;84.22
63181;BME280;49273;37.772;-122.432;2022-08-01T05:35:52;101041.73;;;17.11;84.86
63181;BME280;49273;37.772;-122.432;2022-08-01T05:38:19;101044.29;;;17.26;84.31
63181;BME280;49273;37.772;-122.432;2022-08-01T05:40:48;101049.50;;;17.27;84.10
63181;BME280;49273;37.772;-122.432;2022-08-01T05:43:16;101049.50;;;17.23;85.02
63181;BME280;49273;37.772;-122.432;2022-08-01T05:45:44;101044.19;;;17.09;85.30
63181;BME280;49273;37.772;-122.432;2022-08-01T05:48:12;101044.54;;;17.20;85.06
63181;BME280;49273;37.772;-122.432;2022-08-01T05:50:40;101044.03;;;17.30;84.71
63181;BME280;49273;37.772;-122.432;2022-08-01T05:53:08;101047.57;;;17.18;85.23
63181;BME280;49273;37.772;-122.432;2022-08-01T05:55:36;101049.55;;;17.02;85.11
63181;BME280;49273;37.772;-122.432;2022-08-01T05:58:04;101051.83;;;17.27;84.71
63181;BME280;49273;37.772;-122.432;2022-08-01T06:00:32;101049.93;;;17.36;84.21
63181;BME280;49273;37.772;-122.432;2022-08-01T06:03:00;101047.26;;;17.20;85.11
63181;BME280;49273;37.772;-122.432;2022-08-01T06:05:28;101048.72;;;17.38;84.42
63181;BME280;49273;37.772;-122.432;2022-08-01T06:07:56;101050.33;;;17.42;84.26
63181;BME280;49273;37.772;-122.432;2022-08-01T06:10:24;101057.88;;;17.30;85.03
63181;BME280;49273;37.772;-122.432;2022-08-01T06:12:52;101065.59;;;17.31;85.02
63181;BME280;49273;37.772;-122.432;2022-08-01T06:15:20;101070.69;;;17.20;85.28
63181;BME280;49273;37.772;-122.432;2022-08-01T06:17:49;101073.62;;;17.40;84.51
63181;BME280;49273;37.772;-122.432;2022-08-01T06:20:17;101069.08;;;17.47;84.01
63181;BME280;49273;37.772;-122.432;2022-08-01T06:22:45;101064.70;;;17.30;84.23
63181;BME280;49273;37.772;-122.432;2022-08-01T06:25:13;101063.91;;;17.29;84.77
63181;BME280;49273;37.772;-122.432;2022-08-01T06:27:42;101065.90;;;17.29;84.67
63181;BME280;49273;37.772;-122.432;2022-08-01T06:30:10;101063.94;;;17.29;84.70
63181;BME280;49273;37.772;-122.432;2022-08-01T06:32:38;101059.25;;;17.26;85.25
63181;BME280;49273;37.772;-122.432;2022-08-01T06:35:06;101061.48;;;17.30;85.50
63181;BME280;49273;37.772;-122.432;2022-08-01T06:37:35;101059.80;;;17.21;85.07
63181;BME280;49273;37.772;-122.432;2022-08-01T06:40:04;101055.31;;;17.20;85.18
63181;BME280;49273;37.772;-122.432;2022-08-01T06:42:32;101047.90;;;17.34;84.67
63181;BME280;49273;37.772;-122.432;2022-08-01T06:45:00;101039.51;;;16.91;86.74
63181;BME280;49273;37.772;-122.432;2022-08-01T06:47:28;101045.29;;;17.34;85.20
63181;BME280;49273;37.772;-122.432;2022-08-01T06:49:56;101046.60;;;17.39;84.84
63181;BME280;49273;37.772;-122.432;2022-08-01T06:52:24;101049.10;;;17.22;85.47
63181;BME280;49273;37.772;-122.432;2022-08-01T06:54:51;101048.73;;;17.32;85.10
63181;BME280;49273;37.772;-122.432;2022-08-01T06:57:20;101050.85;;;17.30;84.98
63181;BME280;49273;37.772;-122.432;2022-08-01T06:59:47;101048.90;;;17.40;84.98
63181;BME280;49273;37.772;-122.432;2022-08-01T07:02:16;101045.23;;;17.17;85.96
63181;BME280;49273;37.772;-122.432;2022-08-01T07:04:44;101040.16;;;17.30;85.41
63181;BME280;49273;37.772;-122.432;2022-08-01T07:07:12;101036.47;;;17.34;85.08
63181;BME280;49273;37.772;-122.432;2022-08-01T07:09:39;101039.81;;;17.17;85.45
63181;BME280;49273;37.772;-122.432;2022-08-01T07:12:08;101042.93;;;17.25;85.95
63181;BME280;49273;37.772;-122.432;2022-08-01T07:14:36;101043.37;;;17.26;85.97
63181;BME280;49273;37.772;-122.432;2022-08-01T07:17:04;101043.62;;;17.34;85.45
63181;BME280;49273;37.772;-122.432;2022-08-01T07:19:32;101040.18;;;17.32;85.49
63181;BME280;49273;37.772;-122.432;2022-08-01T07:22:00;101036.45;;;17.22;85.86
63181;BME280;49273;37.772;-122.432;2022-08-01T07:24:28;101038.08;;;17.09;86.56
63181;BME280;49273;37.772;-122.432;2022-08-01T07:26:56;101036.62;;;17.06;86.44
63181;BME280;49273;37.772;-122.432;2022-08-01T07:29:25;101038.61;;;17.11;86.72
63181;BME280;49273;37.772;-122.432;2022-08-01T07:31:55;101041.51;;;17.15;86.60
63181;BME280;49273;37.772;-122.432;2022-08-01T07:34:24;101031.08;;;16.96;87.42
63181;BME280;49273;37.772;-122.432;2022-08-01T07:36:53;101025.92;;;16.99;87.93
63181;BME280;49273;37.772;-122.432;2022-08-01T07:39:21;101021.93;;;16.88;87.98
63181;BME280;49273;37.772;-122.432;2022-08-01T07:41:48;101025.89;;;16.92;87.90
63181;BME280;49273;37.772;-122.432;2022-08-01T07:44:17;101029.44;;;16.85;88.43
63181;BME280;49273;37.772;-122.432;2022-08-01T07:46:45;101034.67;;;17.03;87.80
63181;BME280;49273;37.772;-122.432;2022-08-01T07:49:13;101031.29;;;17.05;87.36
63181;BME280;49273;37.772;-122.432;2022-08-01T07:51:40;101025.47;;;17.04;87.48
63181;BME280;49273;37.772;-122.432;2022-08-01T07:54:08;101023.04;;;17.14;86.81
63181;BME280;49273;37.772;-122.432;2022-08-01T07:56:36;101020.86;;;16.99;88.27
63181;BME280;49273;37.772;-122.432;2022-08-01T07:59:04;101022.49;;;16.98;88.30
63181;BME280;49273;37.772;-122.432;2022-08-01T08:01:32;101018.35;;;17.00;88.16
63181;BME280;49273;37.772;-122.432;2022-08-01T08:04:00;101016.41;;;17.09;87.72
63181;BME280;49273;37.772;-122.432;2022-08-01T08:06:28;101011.67;;;16.90;88.45
63181;BME280;49273;37.772;-122.432;2022-08-01T08:08:55;101000.88;;;16.89;88.29
63181;BME280;49273;37.772;-122.432;2022-08-01T08:11:23;100997.02;;;16.92;88.44
63181;BME280;49273;37.772;-122.432;2022-08-01T08:13:51;100993.71;;;17.05;87.79
63181;BME280;49273;37.772;-122.432;2022-08-01T08:16:19;100987.20;;;16.80;88.83
63181;BME280;49273;37.772;-122.432;2022-08-01T08:18:47;100994.58;;;16.88;88.25
63181;BME280;49273;37.772;-122.432;2022-08-01T08:21:15;100994.02;;;16.82;88.67
63181;BME280;49273;37.772;-122.432;2022-08-01T08:23:44;101000.25;;;16.92;88.63
63181;BME280;49273;37.772;-122.432;2022-08-01T08:26:12;101000.03;;;16.63;89.69
63181;BME280;49273;37.772;-122.432;2022-08-01T08:28:41;100997.40;;;16.65;90.28
63181;BME280;49273;37.772;-122.432;2022-08-01T08:31:08;101003.17;;;16.85;88.97
63181;BME280;49273;37.772;-122.432;2022-08-01T08:33:36;101011.62;;;16.86;88.67
63181;BME280;49273;37.772;-122.432;2022-08-01T08:36:04;101010.08;;;16.76;90.26
63181;BME280;49273;37.772;-122.432;2022-08-01T08:38:33;101013.90;;;16.78;90.13
63181;BME280;49273;37.772;-122.432;2022-08-01T08:41:01;101014.13;;;16.80;89.74
63181;BME280;49273;37.772;-122.432;2022-08-01T08:43:29;101009.48;;;16.90;89.21
63181;BME280;49273;37.772;-122.432;2022-08-01T08:45:57;101007.60;;;16.90;89.07
63181;BME280;49273;37.772;-122.432;2022-08-01T08:48:26;101004.98;;;16.83;89.38
63181;BME280;49273;37.772;-122.432;2022-08-01T08:50:54;100995.11;;;16.78;89.50
63181;BME280;49273;37.772;-122.432;2022-08-01T08:53:22;100988.42;;;16.80;89.85
63181;BME280;49273;37.772;-122.432;2022-08-01T08:55:51;100988.67;;;16.82;90.00
63181;BME280;49273;37.772;-122.432;2022-08-01T08:58:21;100982.62;;;16.75;89.81
63181;BME280;49273;37.772;-122.432;2022-08-01T09:00:52;100980.98;;;16.60;90.74
63181;BME280;49273;37.772;-122.432;2022-08-01T09:03:21;100981.19;;;16.47;92.12
63181;BME280;49273;37.772;-122.432;2022-08-01T09:05:49;100978.05;;;16.58;92.04
63181;BME280;49273;37.772;-122.432;2022-08-01T09:08:17;100980.29;;;16.44;92.03
63181;BME280;49273;37.772;-122.432;2022-08-01T09:10:46;100979.05;;;16.47;92.77
63181;BME280;49273;37.772;-122.432;2022-08-01T09:13:15;100989.55;;;16.38;93.02
63181;BME280;49273;37.772;-122.432;2022-08-01T09:15:45;100990.74;;;16.55;92.35
63181;BME280;49273;37.772;-122.432;2022-08-01T09:18:31;101000.73;;;16.57;91.69
63181;BME280;49273;37.772;-122.432;2022-08-01T09:21:17;101009.59;;;16.47;92.25
63181;BME280;49273;37.772;-122.432;2022-08-01T09:23:46;101019.27;;;16.64;91.15
63181;BME280;49273;37.772;-122.432;2022-08-01T09:26:17;101027.70;;;16.73;90.97
63181;BME280;49273;37.772;-122.432;2022-08-01T09:28:48;101037.06;;;16.71;90.82
63181;BME280;49273;37.772;-122.432;2022-08-01T09:31:18;101042.73;;;16.52;91.46
63181;BME280;49273;37.772;-122.432;2022-08-01T09:33:55;101045.24;;;16.73;89.94
63181;BME280;49273;37.772;-122.432;2022-08-01T09:36:25;101040.86;;;16.57;90.63
63181;BME280;49273;37.772;-122.432;2022-08-01T09:38:54;101036.07;;;16.75;90.25
63181;BME280;49273;37.772;-122.432;2022-08-01T09:41:30;101028.16;;;16.51;91.41
63181;BME280;49273;37.772;-122.432;2022-08-01T09:43:58;101035.66;;;16.67;90.41
63181;BME280;49273;37.772;-122.432;2022-08-01T09:46:26;101035.16;;;16.85;89.88
63181;BME280;49273;37.772;-122.432;2022-08-01T09:48:59;101026.31;;;16.63;89.88
63181;BME280;49273;37.772;-122.432;2022-08-01T09:51:30;101030.40;;;16.72;89.73
63181;BME280;49273;37.772;-122.432;2022-08-01T09:53:58;101034.11;;;16.86;88.84
63181;BME280;49273;37.772;-122.432;2022-08-01T09:56:27;101036.42;;;16.61;89.87
63181;BME280;49273;37.772;-122.432;2022-08-01T09:59:03;101037.63;;;16.85;89.23
63181;BME280;49273;37.772;-122.432;2022-08-01T10:01:43;101038.07;;;16.93;88.21
63181;BME280;49273;37.772;-122.432;2022-08-01T10:04:13;101039.62;;;16.76;89.14
63181;BME280;49273;37.772;-122.432;2022-08-01T10:06:43;101039.72;;;17.00;87.87
63181;BME280;49273;37.772;-122.432;2022-08-01T10:09:12;101037.36;;;16.91;88.19
63181;BME280;49273;37.772;-122.432;2022-08-01T10:11:42;101033.74;;;17.06;87.57
63181;BME280;49273;37.772;-122.432;2022-08-01T10:14:11;101033.43;;;16.92;88.47
63181;BME280;49273;37.772;-122.432;2022-08-01T10:16:40;101030.81;;;17.08;87.86
63181;BME280;49273;37.772;-122.432;2022-08-01T10:19:08;101026.35;;;17.03;88.25
63181;BME280;49273;37.772;-122.432;2022-08-01T10:21:37;101025.61;;;16.99;88.33
63181;BME280;49273;37.772;-122.432;2022-08-01T10:24:06;101028.32;;;16.93;88.59
63181;BME280;49273;37.772;-122.432;2022-08-01T10:26:38;101031.42;;;16.97;87.56
63181;BME280;49273;37.772;-122.432;2022-08-01T10:29:07;101033.18;;;17.05;87.92
63181;BME280;49273;37.772;-122.432;2022-08-01T10:31:37;101034.47;;;16.97;88.21
63181;BME280;49273;37.772;-122.432;2022-08-01T10:34:05;101037.84;;;17.07;87.56
63181;BME280;49273;37.772;-122.432;2022-08-01T10:36:33;101044.83;;;16.96;88.10
63181;BME280;49273;37.772;-122.432;2022-08-01T10:39:02;101045.11;;;16.89;88.19
63181;BME280;49273;37.772;-122.432;2022-08-01T10:41:30;101041.08;;;16.92;88.66
63181;BME280;49273;37.772;-122.432;2022-08-01T10:43:59;101035.33;;;16.89;88.44
63181;BME280;49273;37.772;-122.432;2022-08-01T10:46:28;101032.41;;;16.89;88.24
63181;BME280;49273;37.772;-122.432;2022-08-01T10:49:02;101032.81;;;16.81;88.84
63181;BME280;49273;37.772;-122.432;2022-08-01T10:51:35;101026.68;;;16.91;88.48
63181;BME280;49273;37.772;-122.432;2022-08-01T10:54:06;101021.10;;;16.97;88.14
63181;BME280;49273;37.772;-122.432;2022-08-01T10:56:39;101013.69;;;16.93;87.87
63181;BME280;49273;37.772;-122.432;2022-08-01T10:59:15;101016.59;;;16.80;88.80
63181;BME280;49273;37.772;-122.432;2022-08-01T11:01:57;101017.43;;;16.91;88.00
63181;BME280;49273;37.772;-122.432;2022-08-01T11:04:36;101021.92;;;16.78;88.02
63181;BME280;49273;37.772;-122.432;2022-08-01T11:07:15;101023.53;;;16.67;88.62
63181;BME280;49273;37.772;-122.432;2022-08-01T11:09:46;101027.57;;;16.94;87.08
63181;BME280;49273;37.772;-122.432;2022-08-01T11:12:16;101028.14;;;16.80;87.30
63181;BME280;49273;37.772;-122.432;2022-08-01T11:15:20;101028.22;;;16.85;87.27
63181;BME280;49273;37.772;-122.432;2022-08-01T11:17:48;101023.26;;;16.75;88.19
63181;BME280;49273;37.772;-122.432;2022-08-01T11:20:18;101022.82;;;16.84;87.60
63181;BME280;49273;37.772;-122.432;2022-08-01T11:23:19;101023.54;;;16.90;87.19
63181;BME280;49273;37.772;-122.432;2022-08-01T11:26:20;101019.37;;;17.04;86.54
63181;BME280;49273;37.772;-122.432;2022-08-01T11:29:21;101012.98;;;16.53;88.83
63181;BME280;49273;37.772;-122.432;2022-08-01T11:31:50;101015.65;;;16.79;88.26
63181;BME280;49273;37.772;-122.432;2022-08-01T11:34:18;101022.86;;;16.81;88.02
63181;BME280;49273;37.772;-122.432;2022-08-01T11:36:47;101030.96;;;16.71;88.48
63181;BME280;49273;37.772;-122.432;2022-08-01T11:39:18;101027.21;;;16.61;89.33
63181;BME280;49273;37.772;-122.432;2022-08-01T11:41:49;101028.98;;;16.60;89.05
63181;BME280;49273;37.772;-122.432;2022-08-01T11:44:21;101035.25;;;16.83;88.27
63181;BME280;49273;37.772;-122.432;2022-08-01T11:46:56;101039.41;;;16.77;88.44
63181;BME280;49273;37.772;-122.432;2022-08-01T11:49:28;101037.13;;;16.72;88.79
63181;BME280;49273;37.772;-122.432;2022-08-01T11:51:59;101038.07;;;16.86;87.95
63181;BME280;49273;37.772;-122.432;2022-08-01T11:54:30;101046.61;;;16.81;88.15
63181;BME280;49273;37.772;-122.432;2022-08-01T11:57:00;101053.41;;;16.84;87.96
63181;BME280;49273;37.772;-122.432;2022-08-01T11:59:28;101052.41;;;16.67;88.48
63181;BME280;49273;37.772;-122.432;2022-08-01T12:02:03;101056.82;;;16.67;88.48
63181;BME280;49273;37.772;-122.432;2022-08-01T12:04:45;101055.07;;;16.88;87.55
63181;BME280;49273;37.772;-122.432;2022-08-01T12:07:15;101048.43;;;16.90;87.63
63181;BME280;49273;37.772;-122.432;2022-08-01T12:09:43;101047.67;;;16.88;87.35
63181;BME280;49273;37.772;-122.432;2022-08-01T12:12:14;101053.39;;;17.03;86.85
63181;BME280;49273;37.772;-122.432;2022-08-01T12:14:43;101059.31;;;16.65;88.39
63181;BME280;49273;37.772;-122.432;2022-08-01T12:17:12;101064.21;;;16.84;87.62
63181;BME280;49273;37.772;-122.432;2022-08-01T12:19:41;101067.40;;;16.73;88.38
63181;BME280;49273;37.772;-122.432;2022-08-01T12:22:11;101064.89;;;16.81;88.17
63181;BME280;49273;37.772;-122.432;2022-08-01T12:24:42;101067.95;;;16.84;87.90
63181;BME280;49273;37.772;-122.432;2022-08-01T12:27:10;101071.16;;;16.88;87.40
63181;BME280;49273;37.772;-122.432;2022-08-01T12:29:40;101065.41;;;16.77;87.77
63181;BME280;49273;37.772;-122.432;2022-08-01T12:32:23;101062.61;;;16.59;89.01
63181;BME280;49273;37.772;-122.432;2022-08-01T12:34:53;101065.72;;;16.62;88.71